createdAt,value
2018-11-11T00:01:58.953Z,6.94
2018-11-11T00:04:27.622Z,6.95
2018-11-11T00:06:56.252Z,6.90
2018-11-11T00:09:25.014Z,6.90
2018-11-11T00:11:53.692Z,6.85
2018-11-11T00:14:22.324Z,6.86
2018-11-11T00:16:50.969Z,6.80
2018-11-11T00:19:19.621Z,6.79
2018-11-11T00:21:48.292Z,6.67
2018-11-11T00:24:17.090Z,6.46
2018-11-11T00:26:45.745Z,6.43
2018-11-11T00:29:14.381Z,6.33
2018-11-11T00:31:43.081Z,6.29
2018-11-11T00:34:11.777Z,6.16
2018-11-11T00:36:40.425Z,6.00
2018-11-11T00:39:10.469Z,5.97
2018-11-11T00:41:39.242Z,5.97
2018-11-11T00:44:07.945Z,5.83
2018-11-11T00:46:36.704Z,5.75
2018-11-11T00:49:05.719Z,5.70
2018-11-11T00:51:34.363Z,5.71
2018-11-11T00:54:03.131Z,5.70
2018-11-11T00:56:31.893Z,5.64
2018-11-11T00:59:00.536Z,5.59
2018-11-11T01:01:29.255Z,5.58
2018-11-11T01:03:57.952Z,5.52
2018-11-11T01:06:26.616Z,5.54
2018-11-11T01:08:55.271Z,5.49
2018-11-11T01:11:24.024Z,5.49
2018-11-11T01:13:52.674Z,5.36
2018-11-11T01:16:21.387Z,5.36
2018-11-11T01:18:50.077Z,5.32
2018-11-11T01:21:18.692Z,5.33
2018-11-11T01:23:47.391Z,5.35
2018-11-11T01:26:15.984Z,5.37
2018-11-11T01:28:44.697Z,5.41
2018-11-11T01:31:13.405Z,5.37
2018-11-11T01:33:42.049Z,5.21
2018-11-11T01:36:10.760Z,5.25
2018-11-11T01:38:39.449Z,5.18
2018-11-11T01:41:08.109Z,5.22
2018-11-11T01:43:36.837Z,5.21
2018-11-11T01:46:05.758Z,5.15
2018-11-11T01:48:34.405Z,5.08
2018-11-11T01:51:03.092Z,5.07
2018-11-11T01:53:31.730Z,5.08
2018-11-11T01:56:00.391Z,5.01
2018-11-11T01:58:29.051Z,5.02
2018-11-11T02:00:57.709Z,4.98
2018-11-11T02:03:26.423Z,4.96
2018-11-11T02:05:55.174Z,4.94
2018-11-11T02:08:23.848Z,4.85
2018-11-11T02:10:52.464Z,4.86
2018-11-11T02:13:21.125Z,4.75
2018-11-11T02:15:50.172Z,4.75
2018-11-11T02:18:18.858Z,4.70
2018-11-11T02:20:48.324Z,4.69
2018-11-11T02:23:17.066Z,4.67
2018-11-11T02:25:45.691Z,4.58
2018-11-11T02:28:14.321Z,4.55
2018-11-11T02:30:42.992Z,4.58
2018-11-11T02:33:11.650Z,4.57
2018-11-11T02:35:40.281Z,4.54
2018-11-11T02:38:08.960Z,4.58
2018-11-11T02:40:37.880Z,4.66
2018-11-11T02:43:06.540Z,4.52
2018-11-11T02:45:35.843Z,4.51
2018-11-11T02:48:04.496Z,4.53
2018-11-11T02:50:33.295Z,4.53
2018-11-11T02:53:01.944Z,4.46
2018-11-11T02:55:30.596Z,4.40
2018-11-11T02:57:59.327Z,4.44
2018-11-11T03:00:28.003Z,4.42
2018-11-11T03:02:56.669Z,4.33
2018-11-11T03:05:25.316Z,4.41
2018-11-11T03:07:53.940Z,4.29
2018-11-11T03:10:22.611Z,4.39
2018-11-11T03:12:51.753Z,4.29
2018-11-11T03:15:20.725Z,4.33
2018-11-11T03:17:49.422Z,4.37
2018-11-11T03:20:18.516Z,4.34
2018-11-11T03:22:47.185Z,4.35
2018-11-11T03:25:16.569Z,4.41
2018-11-11T03:27:45.245Z,4.41
2018-11-11T03:30:15.367Z,4.35
2018-11-11T03:32:44.040Z,4.33
2018-11-11T03:35:13.548Z,4.39
2018-11-11T03:37:42.853Z,4.38
2018-11-11T03:40:15.465Z,4.35
2018-11-11T03:42:44.916Z,4.30
2018-11-11T03:45:15.074Z,4.34
2018-11-11T03:47:44.734Z,4.34
2018-11-11T03:50:13.484Z,4.37
2018-11-11T03:52:42.462Z,4.28
2018-11-11T03:55:11.547Z,4.30
2018-11-11T03:57:40.297Z,4.28
2018-11-11T04:00:10.929Z,4.19
2018-11-11T04:02:39.712Z,4.29
2018-11-11T04:05:09.924Z,4.20
2018-11-11T04:07:38.799Z,4.23
2018-11-11T04:10:09.545Z,4.14
2018-11-11T04:12:38.558Z,4.14
2018-11-11T04:15:08.898Z,4.14
2018-11-11T04:17:38.129Z,4.10
2018-11-11T04:20:08.604Z,4.06
2018-11-11T04:22:37.257Z,4.01
2018-11-11T04:25:06.090Z,4.01
2018-11-11T04:27:34.954Z,3.95
2018-11-11T04:30:07.556Z,4.01
2018-11-11T04:32:36.217Z,3.95
2018-11-11T04:35:05.546Z,3.96
2018-11-11T04:37:34.201Z,3.95
2018-11-11T04:40:02.877Z,4.00
2018-11-11T04:42:31.548Z,3.82
2018-11-11T04:45:00.173Z,3.75
2018-11-11T04:47:28.841Z,3.82
2018-11-11T04:49:57.475Z,3.83
2018-11-11T04:52:26.114Z,3.85
2018-11-11T04:54:54.756Z,3.83
2018-11-11T04:57:23.378Z,3.75
2018-11-11T04:59:52.017Z,3.80
2018-11-11T05:02:20.655Z,3.84
2018-11-11T05:04:49.701Z,3.75
2018-11-11T05:07:18.292Z,3.73
2018-11-11T05:09:46.922Z,3.73
2018-11-11T05:12:15.555Z,3.70
2018-11-11T05:14:44.248Z,3.66
2018-11-11T05:17:13.045Z,3.63
2018-11-11T05:19:41.745Z,3.59
2018-11-11T05:22:10.392Z,3.61
2018-11-11T05:24:39.044Z,3.65
2018-11-11T05:27:07.722Z,3.62
2018-11-11T05:29:36.363Z,3.60
2018-11-11T05:32:05.346Z,3.56
2018-11-11T05:34:33.986Z,3.67
2018-11-11T05:37:02.639Z,3.67
2018-11-11T05:39:31.295Z,3.69
2018-11-11T05:41:59.936Z,3.67
2018-11-11T05:44:28.593Z,3.68
2018-11-11T05:46:57.282Z,3.72
2018-11-11T05:49:26.152Z,3.63
2018-11-11T05:51:54.822Z,3.69
2018-11-11T05:54:23.477Z,3.80
2018-11-11T05:56:52.101Z,3.81
2018-11-11T05:59:20.877Z,3.87
2018-11-11T06:01:49.593Z,3.95
2018-11-11T06:04:18.313Z,4.00
2018-11-11T06:06:46.954Z,4.13
2018-11-11T06:09:15.572Z,4.14
2018-11-11T06:11:44.236Z,4.07
2018-11-11T06:14:12.894Z,4.18
2018-11-11T06:16:41.632Z,4.27
2018-11-11T06:19:10.270Z,4.41
2018-11-11T06:21:38.985Z,4.46
2018-11-11T06:24:07.660Z,4.52
2018-11-11T06:26:36.426Z,4.53
2018-11-11T06:29:05.135Z,4.54
2018-11-11T06:31:33.785Z,4.49
2018-11-11T06:34:02.467Z,4.51
2018-11-11T06:36:31.175Z,4.57
2018-11-11T06:38:59.825Z,4.59
2018-11-11T06:41:28.493Z,4.66
2018-11-11T06:43:57.123Z,4.68
2018-11-11T06:46:25.765Z,4.66
2018-11-11T06:48:54.459Z,4.73
2018-11-11T06:51:23.168Z,4.69
2018-11-11T06:53:51.834Z,4.83
2018-11-11T06:56:20.564Z,4.84
2018-11-11T06:58:49.202Z,4.89
2018-11-11T07:01:17.841Z,4.89
2018-11-11T07:03:54.156Z,4.98
2018-11-11T07:06:23.373Z,5.04
2018-11-11T07:08:52.163Z,5.11
2018-11-11T07:11:20.876Z,5.24
2018-11-11T07:13:49.658Z,5.28
2018-11-11T07:16:18.326Z,5.44
2018-11-11T07:18:47.677Z,5.52
2018-11-11T07:21:17.170Z,5.52
2018-11-11T07:23:46.471Z,5.64
2018-11-11T07:26:16.606Z,5.73
2018-11-11T07:28:45.352Z,5.71
2018-11-11T07:31:14.080Z,5.80
2018-11-11T07:33:42.796Z,5.96
2018-11-11T07:36:12.235Z,6.15
2018-11-11T07:38:40.805Z,6.19
2018-11-11T07:41:09.970Z,6.21
2018-11-11T07:43:39.087Z,6.36
2018-11-11T07:46:07.980Z,6.45
2018-11-11T07:48:36.693Z,6.60
2018-11-11T07:51:05.676Z,6.72
2018-11-11T07:53:34.357Z,6.65
2018-11-11T07:56:03.089Z,6.74
2018-11-11T07:58:32.040Z,6.84
2018-11-11T08:01:00.631Z,6.91
2018-11-11T08:03:29.501Z,7.02
2018-11-11T08:05:59.250Z,7.20
2018-11-11T08:08:27.972Z,7.41
2018-11-11T08:11:07.819Z,7.56
2018-11-11T09:23:11.077Z,12.90
2018-11-11T09:25:39.829Z,13.25
2018-11-11T09:28:08.584Z,13.55
2018-11-11T09:30:37.365Z,14.09
2018-11-11T09:33:06.293Z,14.27
2018-11-11T09:35:35.178Z,14.21
2018-11-11T09:38:03.977Z,14.48
2018-11-11T09:40:32.687Z,14.43
2018-11-11T09:43:01.456Z,14.42
2018-11-11T09:45:30.250Z,14.82
2018-11-11T09:47:59.011Z,14.91
2018-11-11T09:50:27.737Z,15.17
2018-11-11T09:52:56.462Z,15.28
2018-11-11T09:55:25.175Z,15.40
2018-11-11T09:57:53.839Z,15.33
2018-11-11T10:00:23.092Z,15.65
2018-11-11T10:02:57.193Z,15.65
2018-11-11T10:05:31.786Z,16.10
2018-11-11T10:08:08.796Z,16.25
2018-11-11T10:11:11.902Z,16.66
2018-11-11T10:13:45.709Z,16.61
2018-11-11T10:16:19.601Z,16.74
2018-11-11T10:19:10.586Z,16.97
2018-11-11T10:21:46.117Z,16.87
2018-11-11T10:24:33.041Z,17.04
2018-11-11T10:27:07.508Z,17.31
2018-11-11T10:30:11.522Z,17.44
2018-11-11T10:33:01.585Z,17.21
2018-11-11T10:35:34.548Z,17.44
2018-11-11T10:38:11.280Z,17.69
2018-11-11T10:40:52.149Z,18.05
2018-11-11T10:43:28.168Z,18.36
2018-11-11T10:46:06.606Z,18.28
2018-11-11T10:48:46.369Z,18.39
2018-11-11T10:51:15.093Z,18.61
2018-11-11T10:53:44.536Z,18.85
2018-11-11T10:56:13.265Z,18.95
2018-11-11T10:58:41.959Z,18.89
2018-11-11T11:01:15.843Z,19.14
2018-11-11T11:03:44.504Z,19.42
2018-11-11T11:06:13.314Z,19.38
2018-11-11T11:08:47.269Z,19.35
2018-11-11T11:11:17.030Z,19.79
2018-11-11T11:13:45.704Z,19.80
2018-11-11T11:16:14.475Z,19.77
2018-11-11T11:18:43.090Z,19.73
2018-11-11T11:21:11.764Z,19.91
2018-11-11T11:23:40.457Z,20.14
2018-11-11T11:26:09.259Z,20.20
2018-11-11T11:30:58.154Z,19.96
2018-11-11T11:33:27.199Z,20.40
2018-11-11T11:35:55.893Z,20.61
2018-11-11T11:38:24.620Z,20.32
2018-11-11T11:40:53.306Z,20.71
2018-11-11T11:43:21.958Z,20.49
2018-11-11T11:45:50.654Z,20.54
2018-11-11T11:48:19.303Z,20.88
2018-11-11T11:50:47.941Z,21.03
2018-11-11T11:53:16.679Z,20.75
2018-11-11T11:55:45.354Z,20.90
2018-11-11T11:58:19.629Z,20.93
2018-11-11T12:00:48.273Z,20.55
2018-11-11T12:03:17.066Z,20.81
2018-11-11T12:05:46.404Z,20.89
2018-11-11T12:08:15.130Z,20.78
2018-11-11T12:10:44.037Z,20.98
2018-11-11T12:13:13.725Z,21.40
2018-11-11T12:15:43.146Z,21.60
2018-11-11T12:18:12.157Z,21.35
2018-11-11T12:20:41.243Z,21.77
2018-11-11T12:23:10.223Z,21.61
2018-11-11T12:25:39.454Z,21.36
2018-11-11T12:28:08.465Z,22.03
2018-11-11T12:30:37.249Z,21.92
2018-11-11T12:33:06.375Z,22.03
2018-11-11T12:35:38.356Z,21.62
2018-11-11T12:38:07.086Z,21.84
2018-11-11T12:40:35.759Z,21.71
2018-11-11T12:43:04.478Z,21.58
2018-11-11T12:45:33.147Z,21.79
2018-11-11T12:48:01.866Z,21.37
2018-11-11T12:50:30.686Z,21.43
2018-11-11T12:52:59.264Z,21.60
2018-11-11T12:55:28.079Z,21.40
2018-11-11T12:57:56.669Z,21.42
2018-11-11T13:00:25.375Z,21.47
2018-11-11T13:02:54.012Z,21.39
2018-11-11T13:05:22.687Z,21.75
2018-11-11T13:07:51.379Z,21.77
2018-11-11T13:10:20.142Z,21.57
2018-11-11T13:12:48.874Z,21.48
2018-11-11T13:15:17.869Z,21.52
2018-11-11T13:17:46.543Z,21.74
2018-11-11T13:20:17.345Z,21.85
2018-11-11T13:22:46.176Z,21.83
2018-11-11T13:25:15.175Z,21.84
2018-11-11T13:27:43.880Z,21.41
2018-11-11T13:30:13.950Z,21.38
2018-11-11T13:32:42.640Z,21.79
2018-11-11T13:35:13.839Z,21.39
2018-11-11T13:37:43.023Z,21.76
2018-11-11T13:40:14.293Z,21.58
2018-11-11T13:42:43.045Z,21.32
2018-11-11T13:45:21.919Z,20.89
2018-11-11T13:47:51.088Z,21.09
2018-11-11T13:50:22.082Z,20.86
2018-11-11T13:52:50.830Z,20.79
2018-11-11T13:55:20.065Z,20.96
2018-11-11T13:57:49.168Z,20.65
2018-11-11T14:00:20.278Z,20.51
2018-11-11T14:02:48.974Z,20.33
2018-11-11T14:05:18.380Z,20.30
2018-11-11T14:07:47.125Z,20.35
2018-11-11T14:10:16.277Z,19.76
2018-11-11T14:12:45.113Z,19.91
2018-11-11T14:15:18.857Z,19.54
2018-11-11T14:17:47.974Z,19.52
2018-11-11T14:20:17.929Z,19.55
2018-11-11T14:22:48.444Z,19.42
2018-11-11T14:25:20.014Z,19.23
2018-11-11T14:27:48.651Z,19.24
2018-11-11T14:30:19.796Z,19.13
2018-11-11T14:32:49.364Z,18.73
2018-11-11T14:35:18.076Z,18.56
2018-11-11T14:37:47.221Z,18.46
2018-11-11T14:40:18.870Z,18.30
2018-11-11T14:42:47.681Z,18.26
2018-11-11T14:45:16.988Z,17.99
2018-11-11T14:47:46.718Z,17.77
2018-11-11T14:50:16.647Z,17.43
2018-11-11T14:52:45.833Z,16.75
2018-11-11T14:55:17.016Z,16.17
2018-11-11T14:57:45.701Z,16.05
2018-11-11T15:00:20.654Z,15.80
2018-11-11T15:03:09.565Z,15.50
2018-11-11T15:05:38.321Z,15.22
2018-11-11T15:08:07.133Z,15.21
2018-11-11T15:10:35.809Z,15.00
2018-11-11T15:13:04.579Z,14.85
2018-11-11T15:15:33.276Z,14.56
2018-11-11T15:18:02.459Z,14.48
2018-11-11T15:20:31.723Z,14.25
2018-11-11T15:23:00.381Z,14.21
2018-11-11T15:25:29.940Z,14.15
2018-11-11T15:27:58.699Z,14.01
2018-11-11T15:30:28.747Z,13.81
2018-11-11T15:32:58.030Z,13.65
2018-11-11T15:35:26.691Z,13.45
2018-11-11T15:37:55.352Z,13.34
2018-11-11T15:40:26.495Z,13.31
2018-11-11T15:42:55.371Z,13.26
2018-11-11T15:45:25.364Z,13.12
2018-11-11T15:47:54.249Z,12.94
2018-11-11T15:50:24.984Z,12.72
2018-11-11T15:52:54.783Z,12.52
2018-11-11T15:55:24.834Z,12.24
2018-11-11T15:57:53.637Z,12.15
2018-11-11T16:00:23.802Z,12.04
2018-11-11T16:02:52.473Z,11.99
2018-11-11T16:05:21.336Z,11.84
2018-11-11T16:07:50.974Z,11.70
2018-11-11T16:10:21.068Z,11.75
2018-11-11T16:12:49.948Z,11.78
2018-11-11T16:15:21.123Z,11.76
2018-11-11T16:17:51.194Z,11.78
2018-11-11T16:20:21.319Z,11.75
2018-11-11T16:22:51.124Z,11.78
2018-11-11T16:25:19.884Z,11.82
2018-11-11T16:27:49.084Z,11.78
2018-11-11T16:30:19.490Z,11.75
2018-11-11T16:32:48.893Z,11.72
2018-11-11T16:35:18.666Z,11.75
2018-11-11T16:37:47.308Z,11.80
2018-11-11T16:42:30.626Z,11.75
2018-11-11T16:44:59.370Z,11.74
2018-11-11T16:47:27.993Z,11.80
2018-11-11T16:49:56.729Z,11.64
2018-11-11T16:52:25.374Z,11.75
2018-11-11T16:54:54.013Z,11.70
2018-11-11T16:57:22.730Z,11.88
2018-11-11T16:59:51.413Z,11.85
2018-11-11T17:02:20.058Z,11.74
2018-11-11T17:04:48.685Z,11.64
2018-11-11T17:07:17.335Z,11.45
2018-11-11T17:09:46.013Z,11.38
2018-11-11T17:12:14.977Z,11.39
2018-11-11T17:14:43.777Z,11.28
2018-11-11T17:17:12.602Z,11.15
2018-11-11T17:19:41.912Z,11.07
2018-11-11T17:22:11.009Z,11.17
2018-11-11T17:24:39.401Z,11.13
2018-11-11T17:27:08.068Z,11.10
2018-11-11T17:29:36.779Z,11.20
2018-11-11T17:32:06.214Z,11.13
2018-11-11T17:34:34.897Z,11.16
2018-11-11T17:37:03.745Z,11.12
2018-11-11T17:39:32.562Z,11.12
2018-11-11T17:42:01.202Z,10.91
2018-11-11T17:44:29.827Z,10.85
2018-11-11T17:46:58.469Z,10.84
2018-11-11T17:49:27.214Z,10.77
2018-11-11T17:51:55.941Z,10.69
2018-11-11T17:54:24.645Z,10.61
2018-11-11T17:56:53.310Z,10.46
2018-11-11T17:59:21.942Z,10.27
2018-11-11T18:01:53.189Z,10.08
2018-11-11T18:04:21.995Z,10.09
2018-11-11T18:06:50.679Z,10.11
2018-11-11T18:09:19.322Z,9.95
2018-11-11T18:11:48.141Z,10.00
2018-11-11T18:14:16.849Z,9.98
2018-11-11T18:16:45.488Z,9.98
2018-11-11T18:19:14.276Z,9.96
2018-11-11T18:21:42.956Z,9.93
2018-11-11T18:24:11.634Z,9.94
2018-11-11T18:26:40.325Z,9.97
2018-11-11T18:29:09.106Z,9.96
2018-11-11T18:31:37.820Z,10.02
2018-11-11T18:34:06.587Z,9.97
2018-11-11T18:36:35.289Z,9.95
2018-11-11T18:39:04.989Z,9.92
2018-11-11T18:41:33.790Z,9.93
2018-11-11T18:44:02.467Z,9.92
2018-11-11T18:46:31.111Z,9.87
2018-11-11T18:48:59.833Z,9.77
2018-11-11T18:51:28.437Z,9.69
2018-11-11T18:53:57.080Z,9.73
2018-11-11T18:56:25.762Z,9.63
2018-11-11T18:58:54.981Z,9.58
2018-11-11T19:01:27.880Z,9.59
2018-11-11T19:03:56.538Z,9.56
2018-11-11T19:06:25.303Z,9.60
2018-11-11T19:08:53.968Z,9.65
2018-11-11T19:11:22.589Z,9.64
2018-11-11T19:13:51.236Z,9.64
2018-11-11T19:16:19.850Z,9.60
2018-11-11T19:18:48.680Z,9.51
2018-11-11T19:21:17.480Z,9.54
2018-11-11T19:23:47.373Z,9.61
2018-11-11T19:26:16.031Z,9.59
2018-11-11T19:28:44.779Z,9.49
2018-11-11T19:31:13.434Z,9.52
2018-11-11T19:33:42.141Z,9.50
2018-11-11T19:36:10.757Z,9.47
2018-11-11T19:38:39.846Z,9.50
2018-11-11T19:41:08.949Z,9.46
2018-11-11T19:43:38.032Z,9.46
2018-11-11T19:46:06.831Z,9.37
2018-11-11T19:48:35.586Z,9.35
2018-11-11T19:51:04.630Z,9.33
2018-11-11T19:53:33.324Z,9.26
2018-11-11T19:56:02.617Z,9.19
2018-11-11T19:58:31.301Z,9.10
2018-11-11T20:01:00.026Z,9.03
2018-11-11T20:03:28.704Z,8.94
2018-11-11T20:05:57.435Z,8.87
2018-11-11T20:08:26.427Z,8.68
2018-11-11T20:10:55.121Z,8.52
2018-11-11T20:13:23.815Z,8.35
2018-11-11T20:15:52.828Z,8.27
2018-11-11T20:18:21.734Z,8.16
2018-11-11T20:20:50.423Z,8.13
2018-11-11T20:23:20.126Z,8.14
2018-11-11T20:25:48.988Z,8.14
2018-11-11T20:28:17.658Z,8.14
2018-11-11T20:30:46.422Z,8.14
2018-11-11T20:33:15.099Z,8.09
2018-11-11T20:35:43.796Z,8.03
2018-11-11T20:38:12.365Z,7.95
2018-11-11T20:40:41.056Z,7.99
2018-11-11T20:43:09.832Z,7.92
2018-11-11T20:45:38.810Z,7.80
2018-11-11T20:48:07.545Z,7.78
2018-11-11T20:50:36.205Z,7.70
2018-11-11T20:53:06.049Z,7.71
2018-11-11T20:55:34.797Z,7.67
2018-11-11T20:58:03.777Z,7.69
2018-11-11T21:00:34.076Z,7.71
2018-11-11T21:03:02.749Z,7.66
2018-11-11T21:05:31.531Z,7.68
2018-11-11T21:08:00.568Z,7.73
2018-11-11T21:10:29.942Z,7.78
2018-11-11T21:12:59.366Z,7.75
2018-11-11T21:15:29.281Z,7.79
2018-11-11T21:17:57.959Z,7.65
2018-11-11T21:20:29.162Z,7.74
2018-11-11T21:22:57.859Z,7.73
2018-11-11T21:25:26.622Z,7.61
2018-11-11T21:27:55.286Z,7.52
2018-11-11T21:30:29.084Z,7.39
2018-11-11T21:32:57.909Z,7.41
2018-11-11T21:35:26.552Z,7.44
2018-11-11T21:37:55.250Z,7.38
2018-11-11T21:40:25.182Z,7.17
2018-11-11T21:42:54.852Z,6.96
2018-11-11T21:45:24.559Z,6.83
2018-11-11T21:47:53.238Z,6.79
2018-11-11T21:50:24.197Z,6.80
2018-11-11T21:53:00.344Z,6.75
2018-11-11T21:55:28.931Z,6.77
2018-11-11T21:57:57.585Z,6.73
2018-11-11T22:00:26.252Z,6.58
2018-11-11T22:02:54.996Z,6.61
2018-11-11T22:05:23.618Z,6.65
2018-11-11T22:07:56.652Z,6.71
2018-11-11T22:10:25.285Z,6.81
2018-11-11T22:12:53.943Z,6.83
2018-11-11T22:15:22.613Z,6.82
2018-11-11T22:17:51.286Z,6.88
2018-11-11T22:20:19.973Z,6.85
2018-11-11T22:22:48.692Z,6.86
2018-11-11T22:25:17.374Z,6.89
2018-11-11T22:27:46.007Z,6.91
2018-11-11T22:30:14.664Z,6.94
2018-11-11T22:32:43.288Z,6.92
2018-11-11T22:35:12.261Z,6.86
2018-11-11T22:37:40.973Z,6.98
2018-11-11T22:40:11.497Z,6.98
2018-11-11T22:42:40.197Z,6.94
2018-11-11T22:45:12.720Z,7.00
2018-11-11T22:47:41.780Z,6.98
2018-11-11T22:50:12.383Z,6.97
2018-11-11T22:52:44.459Z,6.98
2018-11-11T22:55:13.388Z,6.87
2018-11-11T22:57:42.585Z,6.74
2018-11-11T23:00:19.363Z,6.73
2018-11-11T23:02:48.113Z,6.65
2018-11-11T23:05:18.003Z,6.51
2018-11-11T23:07:46.937Z,6.44
2018-11-11T23:10:15.724Z,6.34
2018-11-11T23:12:44.462Z,6.40
2018-11-11T23:15:14.626Z,6.33
2018-11-11T23:17:43.330Z,6.27
2018-11-11T23:20:13.902Z,6.28
2018-11-11T23:22:42.883Z,6.18
2018-11-11T23:25:13.032Z,6.32
2018-11-11T23:27:41.921Z,6.26
2018-11-11T23:30:12.912Z,6.10
2018-11-11T23:32:41.615Z,6.08
2018-11-11T23:35:10.952Z,6.05
2018-11-11T23:37:39.756Z,6.03
2018-11-11T23:40:10.047Z,6.03
2018-11-11T23:42:38.764Z,6.00
2018-11-11T23:45:07.518Z,6.07
2018-11-11T23:47:36.512Z,6.07
2018-11-11T23:50:06.166Z,6.16
2018-11-11T23:52:34.808Z,6.14
2018-11-11T23:55:03.549Z,6.15
2018-11-11T23:57:32.465Z,6.11
